This is the latest recevied weather packets stored in our database for station/object N4OOJ-13. If no packets are shown the sender has not sent any weather packets the latest 10 day(s).
| Time | Temp. | Humidity | Pressure | Rain* | Wind** | Luminosity | Snow |
|---|---|---|---|---|---|---|---|
| 1778080222 | 26.11° C | 62% | 1018.9 hPa | 0 mm | - | - | - |
| 1778079616 | 27.22° C | 58% | 1018.8 hPa | 0 mm | - | - | - |
| 1778079017 | 26.67° C | 60% | 1018.8 hPa | 0 mm | - | - | - |
| 1778078431 | 27.22° C | 59% | 1018.5 hPa | 0 mm | - | - | - |
| 1778077826 | 26.67° C | 62% | 1018.4 hPa | 0 mm | - | - | - |
| 1778077221 | 25.56° C | 65% | 1018.5 hPa | 0 mm | - | - | - |
| 1778076616 | 26.11° C | 64% | 1018.5 hPa | 0 mm | - | - | - |
| 1778076029 | 27.22° C | 62% | 1018.5 hPa | 0 mm | - | - | - |
| 1778075424 | 26.67° C | 66% | 1018.5 hPa | 0 mm | - | - | - |
| 1778074821 | 25.56° C | 70% | 1018.6 hPa | 0 mm | - | - | - |
| 1778074227 | 25.56° C | 70% | 1018.4 hPa | 0 mm | - | - | - |
| 1778073621 | 26.11° C | 69% | 1018.3 hPa | 0 mm | - | - | - |
| 1778073021 | 25.56° C | 70% | 1018.2 hPa | 0 mm | - | - | - |
| 1778072433 | 24.44° C | 74% | 1018.2 hPa | 0 mm | - | - | - |
| 1778071834 | 23.89° C | 77% | 1018.2 hPa | 0 mm | - | - | - |
| 1778071233 | 22.78° C | 80% | 1018 hPa | 0 mm | - | - | - |
| 1778070616 | 22.22° C | 83% | 1017.9 hPa | 0 mm | - | - | - |
| 1778070029 | 21.11° C | 85% | 1017.9 hPa | 0 mm | - | - | - |
| 1778069429 | 20° C | 89% | 1017.9 hPa | 0 mm | - | - | - |
| 1778068827 | 18.89° C | 91% | 1017.8 hPa | 0 mm | - | - | - |
| 1778068227 | 17.78° C | 96% | 1017.8 hPa | 0 mm | - | - | - |
| 1778067620 | 16.11° C | 99% | 1017.7 hPa | 0 mm | - | - | - |
| 1778067015 | 14.44° C | 99% | 1017.6 hPa | 0 mm | - | - | - |
| 1778066429 | 13.33° C | 99% | 1017.5 hPa | 0 mm | - | - | - |
| 1778065819 | 12.78° C | 99% | 1017.4 hPa | 0 mm | - | - | - |
* Rain latest hour (hover to see other rain measurements)
** Current wind speed in m/s (hover to see current wind gust speed)